Time,TemperatureF,DewpointF,PressureIn,WindDirection,WindDirectionDegrees,WindSpeedMPH,WindSpeedGustMPH,Humidity,HourlyPrecipIn,Conditions,Clouds,dailyrainin,SoftwareType,DateUTC
2013-04-12 00:10:00,70.5,69.9,29.63,NNE,22,1.7,-999.0,98,-99.99,,,0.00,Acu-Link.com,2013-04-12 04:10:00,
2013-04-12 00:25:00,70.3,69.7,29.64,SSW,202,5.8,-999.0,98,-99.99,,,0.00,Acu-Link.com,2013-04-12 04:25:00,
2013-04-12 00:40:00,70.3,69.7,29.64,ESE,112,5.8,-999.0,98,-99.99,,,0.00,Acu-Link.com,2013-04-12 04:40:00,
2013-04-12 00:56:00,70.3,69.7,29.64,West,270,0.0,-999.0,98,-99.99,,,0.00,Acu-Link.com,2013-04-12 04:56:00,
2013-04-12 01:56:00,70.2,69.6,29.61,SE,135,0.0,-999.0,98,-99.99,,,0.00,Acu-Link.com,2013-04-12 05:56:00,
2013-04-12 02:11:00,70.2,69.6,29.61,South,180,1.7,-999.0,98,-99.99,,,0.00,Acu-Link.com,2013-04-12 06:11:00,
2013-04-12 02:26:00,70.2,69.6,29.60,NE,45,2.2,-999.0,98,-99.99,,,0.00,Acu-Link.com,2013-04-12 06:26:00,
2013-04-12 02:41:00,70.2,69.6,29.59,WSW,247,1.7,-999.0,98,-99.99,,,0.00,Acu-Link.com,2013-04-12 06:41:00,
2013-04-12 02:56:00,70.2,69.6,29.59,ESE,112,4.2,-999.0,98,-99.99,,,0.00,Acu-Link.com,2013-04-12 06:56:00,
2013-04-12 03:12:00,70.2,69.6,29.58,North,0,4.7,-999.0,98,-99.99,,,0.00,Acu-Link.com,2013-04-12 07:12:00,
2013-04-12 03:27:00,70.2,69.6,29.57,NNE,22,2.2,-999.0,98,-99.99,,,0.00,Acu-Link.com,2013-04-12 07:27:00,
2013-04-12 03:42:00,70.2,69.6,29.57,West,270,4.7,-999.0,98,-99.99,,,0.00,Acu-Link.com,2013-04-12 07:42:00,
2013-04-12 03:57:00,70.2,69.6,29.56,SSE,157,1.1,-999.0,98,-99.99,,,0.00,Acu-Link.com,2013-04-12 07:57:00,
2013-04-12 04:13:00,70.3,69.7,29.56,West,270,2.2,-999.0,98,-99.99,,,0.00,Acu-Link.com,2013-04-12 08:13:00,
2013-04-12 04:28:00,70.2,69.6,29.55,ESE,112,2.2,-999.0,98,-99.99,,,0.00,Acu-Link.com,2013-04-12 08:28:00,
2013-04-12 04:43:00,70.0,69.4,29.56,SSE,157,3.2,-999.0,98,-99.99,,,0.00,Acu-Link.com,2013-04-12 08:43:00,
2013-04-12 04:58:00,70.2,69.6,29.56,South,180,4.7,-999.0,98,-99.99,,,0.00,Acu-Link.com,2013-04-12 08:58:00,
2013-04-12 05:13:00,69.8,69.2,29.57,NW,315,2.2,-999.0,98,-99.99,,,0.00,Acu-Link.com,2013-04-12 09:13:00,
2013-04-12 05:29:00,68.2,67.6,29.56,SSE,157,1.7,-999.0,98,-99.99,,,0.04,Acu-Link.com,2013-04-12 09:29:00,
2013-04-12 05:44:00,68.0,67.4,29.54,SSE,157,2.7,-999.0,98,-99.99,,,0.08,Acu-Link.com,2013-04-12 09:44:00,
2013-04-12 05:59:00,68.2,67.6,29.54,ESE,112,3.2,-999.0,98,-99.99,,,0.11,Acu-Link.com,2013-04-12 09:59:00,
2013-04-12 06:14:00,67.8,67.2,29.54,South,180,2.7,-999.0,98,-99.99,,,0.13,Acu-Link.com,2013-04-12 10:14:00,
2013-04-12 06:29:00,67.8,67.2,29.53,SW,225,4.2,-999.0,98,-99.99,,,0.14,Acu-Link.com,2013-04-12 10:29:00,
2013-04-12 06:44:00,67.6,67.0,29.54,West,270,5.8,-999.0,98,-99.99,,,0.24,Acu-Link.com,2013-04-12 10:44:00,
2013-04-12 06:59:00,67.6,67.0,29.56,SSW,202,3.2,-999.0,98,-99.99,,,0.24,Acu-Link.com,2013-04-12 10:59:00,
2013-04-12 07:15:00,67.3,66.7,29.57,South,180,2.7,-999.0,98,-99.99,,,0.31,Acu-Link.com,2013-04-12 11:15:00,
2013-04-12 07:30:00,67.3,66.7,29.57,ESE,112,1.7,-999.0,98,-99.99,,,0.31,Acu-Link.com,2013-04-12 11:30:00,
2013-04-12 07:45:00,67.3,66.7,29.57,NNW,337,1.7,-999.0,98,-99.99,,,0.31,Acu-Link.com,2013-04-12 11:45:00,
2013-04-12 08:00:00,67.5,66.9,29.57,SSE,157,1.7,-999.0,98,-99.99,,,0.32,Acu-Link.com,2013-04-12 12:00:00,
2013-04-12 08:15:00,67.8,67.2,29.56,ENE,67,3.2,-999.0,98,-99.99,,,0.34,Acu-Link.com,2013-04-12 12:15:00,
2013-04-12 08:30:00,68.0,67.4,29.56,ESE,112,3.2,-999.0,98,-99.99,,,0.34,Acu-Link.com,2013-04-12 12:30:00,
2013-04-12 08:45:00,68.4,67.8,29.55,SE,135,3.2,-999.0,98,-99.99,,,0.34,Acu-Link.com,2013-04-12 12:45:00,
2013-04-12 09:00:00,68.5,67.9,29.55,WSW,247,2.7,-999.0,98,-99.99,,,0.34,Acu-Link.com,2013-04-12 13:00:00,
2013-04-12 09:15:00,68.5,67.9,29.55,ESE,112,3.2,-999.0,98,-99.99,,,0.34,Acu-Link.com,2013-04-12 13:15:00,
2013-04-12 09:31:00,69.3,68.7,29.55,SW,225,2.7,-999.0,98,-99.99,,,0.34,Acu-Link.com,2013-04-12 13:31:00,
2013-04-12 09:46:00,70.3,69.7,29.55,SSE,157,1.7,-999.0,98,-99.99,,,0.34,Acu-Link.com,2013-04-12 13:46:00,
2013-04-12 10:16:00,71.2,70.6,29.54,East,90,2.2,-999.0,98,-99.99,,,0.34,Acu-Link.com,2013-04-12 14:16:00,
2013-04-12 10:31:00,71.6,71.0,29.55,NNW,337,1.1,-999.0,98,-99.99,,,0.34,Acu-Link.com,2013-04-12 14:31:00,
2013-04-12 10:46:00,73.4,72.8,29.55,ESE,112,2.7,-999.0,98,-99.99,,,0.34,Acu-Link.com,2013-04-12 14:46:00,
2013-04-12 11:16:00,72.7,72.1,29.55,SSW,202,4.7,-999.0,98,-99.99,,,0.34,Acu-Link.com,2013-04-12 15:16:00,
2013-04-12 12:02:00,78.1,77.5,29.53,South,180,3.2,-999.0,98,-99.99,,,0.34,Acu-Link.com,2013-04-12 16:02:00,
2013-04-12 12:17:00,79.0,78.4,29.53,East,90,4.7,-999.0,98,-99.99,,,0.34,Acu-Link.com,2013-04-12 16:17:00,
2013-04-12 12:32:00,76.5,75.9,29.53,SSE,157,1.7,-999.0,98,-99.99,,,0.34,Acu-Link.com,2013-04-12 16:32:00,
2013-04-12 12:47:00,74.3,73.7,29.52,NNW,337,1.7,-999.0,98,-99.99,,,0.35,Acu-Link.com,2013-04-12 16:47:00,
2013-04-12 13:02:00,68.5,67.9,29.54,NNE,22,2.2,-999.0,98,-99.99,,,0.73,Acu-Link.com,2013-04-12 17:02:00,
2013-04-12 13:17:00,68.9,68.3,29.51,NE,45,1.7,-999.0,98,-99.99,,,1.21,Acu-Link.com,2013-04-12 17:17:00,
2013-04-12 13:32:00,71.1,70.5,29.51,SSE,157,2.7,-999.0,98,-99.99,,,1.21,Acu-Link.com,2013-04-12 17:32:00,
2013-04-12 15:34:00,81.0,80.4,29.47,WSW,247,3.2,-999.0,98,-99.99,,,1.21,Acu-Link.com,2013-04-12 19:34:00,
2013-04-12 15:49:00,80.8,80.2,29.46,SSW,202,8.9,-999.0,98,-99.99,,,1.21,Acu-Link.com,2013-04-12 19:49:00,
2013-04-12 16:04:00,80.1,79.5,29.44,NNW,337,1.7,-999.0,98,-99.99,,,1.21,Acu-Link.com,2013-04-12 20:04:00,
2013-04-12 16:19:00,81.5,80.9,29.44,ESE,112,3.7,-999.0,98,-99.99,,,1.21,Acu-Link.com,2013-04-12 20:19:00,
2013-04-12 16:34:00,81.5,80.9,29.44,SW,225,5.3,-999.0,98,-99.99,,,1.21,Acu-Link.com,2013-04-12 20:34:00,
2013-04-12 16:50:00,81.9,81.3,29.44,NW,315,5.8,-999.0,98,-99.99,,,1.21,Acu-Link.com,2013-04-12 20:50:00,
2013-04-12 17:05:00,81.5,80.9,29.44,West,270,5.3,-999.0,98,-99.99,,,1.21,Acu-Link.com,2013-04-12 21:05:00,
2013-04-12 17:20:00,81.3,80.7,29.44,SW,225,2.7,-999.0,98,-99.99,,,1.21,Acu-Link.com,2013-04-12 21:20:00,
2013-04-12 17:35:00,81.0,80.4,29.44,South,180,3.7,-999.0,98,-99.99,,,1.21,Acu-Link.com,2013-04-12 21:35:00,
2013-04-12 17:50:00,80.4,79.2,29.44,SSE,157,4.7,-999.0,96,-99.99,,,1.21,Acu-Link.com,2013-04-12 21:50:00,
2013-04-12 18:05:00,80.1,79.2,29.44,SE,135,6.3,-999.0,97,-99.99,,,1.21,Acu-Link.com,2013-04-12 22:05:00,
2013-04-12 18:20:00,79.5,78.9,29.43,NNE,22,3.7,-999.0,98,-99.99,,,1.21,Acu-Link.com,2013-04-12 22:20:00,
2013-04-12 18:35:00,79.2,78.6,29.43,South,180,2.2,-999.0,98,-99.99,,,1.21,Acu-Link.com,2013-04-12 22:35:00,
2013-04-12 18:50:00,78.4,77.8,29.45,NE,45,1.1,-999.0,98,-99.99,,,1.21,Acu-Link.com,2013-04-12 22:50:00,
2013-04-12 19:06:00,77.7,77.1,29.45,NNE,22,3.7,-999.0,98,-99.99,,,1.21,Acu-Link.com,2013-04-12 23:06:00,
2013-04-12 20:06:00,73.9,73.3,29.47,SW,225,1.1,-999.0,98,-99.99,,,1.21,Acu-Link.com,2013-04-13 00:06:00,
2013-04-12 20:36:00,72.5,71.9,29.48,SW,225,0.0,-999.0,98,-99.99,,,1.21,Acu-Link.com,2013-04-13 00:36:00,
2013-04-12 20:51:00,72.1,71.5,29.49,South,180,2.2,-999.0,98,-99.99,,,1.21,Acu-Link.com,2013-04-13 00:51:00,
2013-04-12 21:06:00,71.4,70.8,29.49,ENE,67,1.7,-999.0,98,-99.99,,,1.21,Acu-Link.com,2013-04-13 01:06:00,
2013-04-12 21:22:00,70.9,70.3,29.50,SE,135,2.2,-999.0,98,-99.99,,,1.21,Acu-Link.com,2013-04-13 01:22:00,
2013-04-12 21:37:00,70.3,69.7,29.51,West,270,1.7,-999.0,98,-99.99,,,1.21,Acu-Link.com,2013-04-13 01:37:00,
2013-04-12 21:52:00,69.8,69.2,29.52,ESE,112,1.7,-999.0,98,-99.99,,,1.21,Acu-Link.com,2013-04-13 01:52:00,
2013-04-12 22:07:00,69.4,68.8,29.53,East,90,1.7,-999.0,98,-99.99,,,1.21,Acu-Link.com,2013-04-13 02:07:00,
2013-04-12 22:22:00,68.7,68.1,29.53,West,270,1.7,-999.0,98,-99.99,,,1.21,Acu-Link.com,2013-04-13 02:22:00,
2013-04-12 22:37:00,68.0,67.4,29.54,NE,45,1.1,-999.0,98,-99.99,,,1.21,Acu-Link.com,2013-04-13 02:37:00,
2013-04-12 22:52:00,67.5,66.9,29.55,ESE,112,1.7,-999.0,98,-99.99,,,1.21,Acu-Link.com,2013-04-13 02:52:00,
2013-04-12 23:38:00,66.9,62.6,29.57,SSW,202,1.7,-999.0,86,-99.99,,,1.21,Acu-Link.com,2013-04-13 03:38:00,